createdAt,value
2019-01-17T00:00:49.502Z,5.80
2019-01-17T00:03:32.917Z,5.50
2019-01-17T00:06:39.301Z,5.60
2019-01-17T00:09:46.017Z,5.40
2019-01-17T00:12:33.170Z,5.50
2019-01-17T00:15:33.317Z,5.60
2019-01-17T00:18:18.155Z,5.50
2019-01-17T00:21:14.506Z,5.70
2019-01-17T00:24:02.757Z,5.80
2019-01-17T00:26:49.992Z,5.70
2019-01-17T00:29:36.658Z,5.50
2019-01-17T00:32:33.614Z,5.70
2019-01-17T00:35:22.369Z,5.70
2019-01-17T00:38:09.571Z,5.60
2019-01-17T00:41:13.226Z,5.50
2019-01-17T00:44:16.458Z,5.60
2019-01-17T00:47:03.722Z,5.40
2019-01-17T00:49:50.582Z,5.60
2019-01-17T00:52:47.662Z,5.70
2019-01-17T00:55:35.890Z,5.70
2019-01-17T00:58:33.038Z,5.70
2019-01-17T01:01:20.371Z,5.70
2019-01-17T01:04:17.894Z,5.50
2019-01-17T01:07:17.167Z,5.40
2019-01-17T01:10:04.308Z,5.60
2019-01-17T01:12:52.532Z,5.60
2019-01-17T01:15:39.836Z,5.70
2019-01-17T01:18:28.059Z,5.80
2019-01-17T01:21:25.351Z,5.60
2019-01-17T01:24:15.562Z,5.40
2019-01-17T01:26:54.661Z,5.70
2019-01-17T01:29:42.862Z,5.70
2019-01-17T01:32:19.820Z,5.90
2019-01-17T01:35:17.014Z,5.90
2019-01-17T01:38:06.394Z,5.80
2019-01-17T01:40:53.470Z,5.80
2019-01-17T01:43:40.582Z,5.90
2019-01-17T01:46:20.062Z,5.80
2019-01-17T01:49:11.132Z,5.80
2019-01-17T01:51:47.954Z,5.90
2019-01-17T01:54:22.030Z,5.90
2019-01-17T01:56:48.026Z,5.70
2019-01-17T01:59:17.562Z,5.70
2019-01-17T02:01:46.726Z,5.80
2019-01-17T02:04:15.914Z,5.90
2019-01-17T02:06:45.146Z,5.50
2019-01-17T02:09:14.367Z,5.60
2019-01-17T02:11:43.538Z,5.70
2019-01-17T02:14:12.874Z,5.80
2019-01-17T02:16:42.426Z,5.80
2019-01-17T02:19:11.578Z,5.80
2019-01-17T02:21:40.799Z,5.60
2019-01-17T02:24:10.291Z,5.50
2019-01-17T02:26:39.538Z,5.40
2019-01-17T02:29:08.788Z,5.60
2019-01-17T02:31:38.222Z,5.50
2019-01-17T02:34:07.379Z,5.60
2019-01-17T02:36:36.569Z,5.70
2019-01-17T02:39:07.977Z,5.60
2019-01-17T02:41:37.214Z,5.70
2019-01-17T02:44:06.392Z,5.70
2019-01-17T02:46:35.517Z,5.90
2019-01-17T02:49:04.645Z,5.80
2019-01-17T02:51:34.050Z,5.80
2019-01-17T02:54:03.166Z,5.80
2019-01-17T02:56:32.358Z,5.80
2019-01-17T02:59:01.787Z,5.80
2019-01-17T03:01:30.898Z,5.70
2019-01-17T03:04:00.065Z,5.80
2019-01-17T03:06:29.262Z,5.90
2019-01-17T03:08:58.411Z,6.00
2019-01-17T03:11:27.524Z,5.90
2019-01-17T03:13:56.661Z,5.80
2019-01-17T03:16:25.858Z,5.90
2019-01-17T03:18:55.427Z,5.90
2019-01-17T03:21:24.557Z,5.80
2019-01-17T03:23:53.709Z,5.70
2019-01-17T03:26:24.161Z,5.80
2019-01-17T03:28:53.289Z,5.80
2019-01-17T03:31:22.458Z,5.70
2019-01-17T03:33:51.568Z,6.00
2019-01-17T03:36:20.904Z,6.20
2019-01-17T03:38:50.336Z,6.20
2019-01-17T03:41:19.465Z,6.30
2019-01-17T03:43:48.603Z,6.10
2019-01-17T03:46:18.086Z,6.20
2019-01-17T03:48:47.244Z,6.30
2019-01-17T03:51:16.486Z,6.10
2019-01-17T03:53:45.611Z,6.10
2019-01-17T03:56:21.455Z,6.20
2019-01-17T03:58:45.588Z,6.30
2019-01-17T04:01:14.835Z,6.30
2019-01-17T04:03:43.966Z,6.40
2019-01-17T04:06:13.149Z,6.30
2019-01-17T04:08:42.294Z,6.30
2019-01-17T04:11:11.438Z,6.20
2019-01-17T04:13:40.685Z,6.10
2019-01-17T04:16:09.893Z,6.20
2019-01-17T04:18:39.026Z,6.10
2019-01-17T04:21:08.190Z,6.20
2019-01-17T04:23:37.597Z,6.20
2019-01-17T04:26:06.734Z,6.00
2019-01-17T04:28:35.861Z,6.10
2019-01-17T04:31:04.987Z,6.20
2019-01-17T04:33:34.173Z,6.10
2019-01-17T04:36:03.313Z,6.10
2019-01-17T04:38:32.458Z,6.20
2019-01-17T04:41:01.941Z,6.20
2019-01-17T04:43:31.050Z,6.10
2019-01-17T04:46:00.165Z,6.10
2019-01-17T04:48:29.327Z,6.00
2019-01-17T04:50:58.439Z,6.10
2019-01-17T04:53:27.564Z,6.10
2019-01-17T04:55:56.711Z,6.20
2019-01-17T04:58:26.056Z,6.10
2019-01-17T05:00:55.246Z,6.20
2019-01-17T05:03:24.415Z,6.10
2019-01-17T05:05:53.652Z,6.20
2019-01-17T05:08:22.785Z,6.20
2019-01-17T05:10:51.958Z,6.30
2019-01-17T05:13:21.097Z,6.30
2019-01-17T05:15:50.222Z,6.40
2019-01-17T05:18:19.333Z,6.40
2019-01-17T05:20:48.522Z,6.30
2019-01-17T05:23:17.668Z,6.20
2019-01-17T05:25:46.805Z,6.30
2019-01-17T05:28:17.806Z,6.40
2019-01-17T05:30:47.213Z,6.30
2019-01-17T05:33:16.385Z,6.30
2019-01-17T05:35:45.494Z,6.30
2019-01-17T05:38:15.085Z,6.30
2019-01-17T05:40:44.319Z,6.30
2019-01-17T05:43:13.438Z,6.20
2019-01-17T05:45:42.627Z,6.30
2019-01-17T05:48:11.858Z,6.30
2019-01-17T05:50:41.049Z,6.30
2019-01-17T05:53:29.354Z,6.40
2019-01-17T05:55:58.506Z,6.40
2019-01-17T05:58:27.627Z,6.50
2019-01-17T06:00:56.774Z,6.40
2019-01-17T06:03:25.894Z,6.40
2019-01-17T06:05:55.090Z,6.30
2019-01-17T06:08:24.257Z,6.30
2019-01-17T06:10:53.405Z,6.30
2019-01-17T06:13:23.001Z,6.40
2019-01-17T06:15:52.616Z,6.40
2019-01-17T06:18:21.769Z,6.40
2019-01-17T06:20:51.399Z,6.40
2019-01-17T06:23:20.663Z,6.40
2019-01-17T06:25:49.813Z,6.40
2019-01-17T06:28:18.997Z,6.40
2019-01-17T06:30:48.414Z,6.20
2019-01-17T06:33:17.671Z,6.20
2019-01-17T06:35:46.779Z,6.20
2019-01-17T06:38:16.202Z,6.20
2019-01-17T06:40:45.322Z,6.20
2019-01-17T06:43:14.449Z,6.20
2019-01-17T06:45:43.893Z,6.20
2019-01-17T06:48:13.012Z,6.30
2019-01-17T06:50:42.200Z,6.30
2019-01-17T06:53:11.635Z,6.30
2019-01-17T06:55:40.753Z,6.30
2019-01-17T06:58:09.885Z,6.40
2019-01-17T07:00:39.054Z,6.30
2019-01-17T07:03:08.231Z,6.30
2019-01-17T07:05:37.420Z,6.30
2019-01-17T07:08:06.564Z,6.30
2019-01-17T07:10:35.685Z,6.40
2019-01-17T07:13:05.874Z,6.40
2019-01-17T07:15:35.020Z,6.40
2019-01-17T07:18:04.486Z,6.40
2019-01-17T07:20:33.681Z,6.40
2019-01-17T07:23:02.800Z,6.30
2019-01-17T07:25:32.414Z,6.40
2019-01-17T07:28:01.539Z,6.40
2019-01-17T07:30:30.659Z,6.30
2019-01-17T07:32:59.861Z,6.30
2019-01-17T07:35:29.131Z,6.40
2019-01-17T07:37:58.251Z,6.40
2019-01-17T07:40:28.470Z,6.40
2019-01-17T07:42:57.693Z,6.30
2019-01-17T07:45:29.068Z,6.30
2019-01-17T07:47:58.282Z,6.30
2019-01-17T07:50:27.473Z,6.30
2019-01-17T07:52:56.625Z,6.30
2019-01-17T07:55:25.801Z,6.30
2019-01-17T07:57:54.913Z,6.30
2019-01-17T08:00:24.739Z,6.30
2019-01-17T08:02:54.237Z,6.30
2019-01-17T08:05:23.455Z,6.30
2019-01-17T08:07:52.673Z,6.30
2019-01-17T08:10:22.085Z,6.40
2019-01-17T08:12:51.271Z,6.30
2019-01-17T08:15:20.409Z,6.40
2019-01-17T08:17:49.552Z,6.50
2019-01-17T08:20:23.613Z,6.50
2019-01-17T08:22:53.037Z,6.50
2019-01-17T08:25:22.286Z,6.40
2019-01-17T08:27:51.449Z,6.50
2019-01-17T08:30:22.975Z,6.40
2019-01-17T08:32:52.117Z,6.40
2019-01-17T08:35:21.282Z,6.40
2019-01-17T08:37:50.401Z,6.40
2019-01-17T08:40:30.453Z,6.40
2019-01-17T08:42:59.615Z,6.40
2019-01-17T08:45:28.857Z,6.40
2019-01-17T08:47:58.212Z,6.40
2019-01-17T08:50:28.064Z,6.40
2019-01-17T08:52:57.409Z,6.40
2019-01-17T08:55:26.554Z,6.40
2019-01-17T08:57:55.670Z,6.40
2019-01-17T09:00:25.472Z,6.50
2019-01-17T09:02:55.060Z,6.50
2019-01-17T09:05:24.205Z,6.50
2019-01-17T09:07:53.390Z,6.50
2019-01-17T09:10:25.301Z,6.50
2019-01-17T09:12:54.433Z,6.60
2019-01-17T09:15:26.204Z,6.60
2019-01-17T09:17:55.358Z,6.50
2019-01-17T09:20:24.484Z,6.60
2019-01-17T09:22:53.963Z,6.60
2019-01-17T09:25:23.143Z,6.50
2019-01-17T09:27:52.296Z,6.50
2019-01-17T09:30:21.562Z,6.50
2019-01-17T09:32:50.727Z,6.50
2019-01-17T09:35:19.893Z,6.50
2019-01-17T09:37:49.035Z,6.60
2019-01-17T09:40:19.841Z,6.60
2019-01-17T09:42:48.995Z,6.60
2019-01-17T09:45:18.876Z,6.60
2019-01-17T09:47:48.008Z,6.70
2019-01-17T09:50:19.312Z,6.60
2019-01-17T09:52:48.454Z,6.50
2019-01-17T09:55:17.646Z,6.60
2019-01-17T09:57:46.786Z,6.80
2019-01-17T10:00:21.631Z,6.80
2019-01-17T10:02:51.130Z,6.80
2019-01-17T10:05:20.248Z,6.90
2019-01-17T10:07:49.393Z,6.80
2019-01-17T10:10:23.953Z,6.80
2019-01-17T10:12:53.399Z,6.70
2019-01-17T10:16:06.593Z,6.70
2019-01-17T10:19:08.060Z,6.80
2019-01-17T10:22:27.498Z,6.80
2019-01-17T10:25:36.948Z,6.70
2019-01-17T10:28:52.668Z,6.80
2019-01-17T10:31:31.193Z,6.80
2019-01-17T10:34:39.498Z,6.90
2019-01-17T10:38:01.903Z,6.90
2019-01-17T10:41:17.305Z,6.80
2019-01-17T10:44:32.158Z,6.80
2019-01-17T10:47:41.333Z,6.90
2019-01-17T10:50:47.321Z,7.00
2019-01-17T10:54:12.945Z,7.00
2019-01-17T10:57:23.561Z,7.10
2019-01-17T11:00:15.162Z,7.20
2019-01-17T11:03:10.056Z,7.10
2019-01-17T11:06:16.277Z,7.00
2019-01-17T11:09:41.088Z,7.10
2019-01-17T11:12:39.493Z,7.10
2019-01-17T11:15:29.885Z,7.20
2019-01-17T11:18:28.920Z,7.30
2019-01-17T11:21:24.069Z,7.30
2019-01-17T11:24:31.285Z,7.40
2019-01-17T11:27:42.483Z,7.30
2019-01-17T11:30:43.257Z,7.30
2019-01-17T11:33:44.611Z,7.30
2019-01-17T11:37:01.744Z,7.30
2019-01-17T11:39:51.074Z,7.30
2019-01-17T11:42:52.045Z,7.30
2019-01-17T11:45:28.848Z,7.30
2019-01-17T11:48:51.194Z,7.20
2019-01-17T11:51:38.457Z,7.20
2019-01-17T11:54:24.165Z,7.20
2019-01-17T11:57:30.615Z,7.10
2019-01-17T12:00:34.220Z,7.10
2019-01-17T12:03:36.458Z,7.10
2019-01-17T12:06:05.685Z,7.20
2019-01-17T12:08:34.884Z,7.30
2019-01-17T12:11:04.294Z,7.40
2019-01-17T12:13:33.625Z,7.30
2019-01-17T12:16:02.904Z,7.20
2019-01-17T12:18:32.051Z,7.30
2019-01-17T12:21:01.173Z,7.30
2019-01-17T12:23:30.323Z,7.40
2019-01-17T12:25:59.487Z,7.40
2019-01-17T12:28:28.815Z,7.40
2019-01-17T12:30:57.970Z,7.40
2019-01-17T12:33:27.214Z,7.40
2019-01-17T12:35:56.416Z,7.50
2019-01-17T12:38:25.540Z,7.60
2019-01-17T12:40:54.682Z,7.50
2019-01-17T12:43:23.903Z,7.40
2019-01-17T12:45:53.045Z,7.40
2019-01-17T12:48:22.191Z,7.40
2019-01-17T12:50:51.337Z,7.30
2019-01-17T12:53:20.538Z,7.20
2019-01-17T12:55:49.664Z,7.20
2019-01-17T12:58:18.844Z,7.20
2019-01-17T13:00:48.064Z,7.30
2019-01-17T13:03:17.210Z,7.40
2019-01-17T13:05:46.366Z,7.40
2019-01-17T13:08:15.541Z,7.30
2019-01-17T13:10:44.670Z,7.40
2019-01-17T13:13:13.909Z,7.40
2019-01-17T13:15:43.165Z,7.40
2019-01-17T13:18:12.418Z,7.40
2019-01-17T13:20:41.557Z,7.40
2019-01-17T13:23:10.806Z,7.40
2019-01-17T13:25:40.157Z,7.50
2019-01-17T13:28:09.374Z,7.50
2019-01-17T13:30:38.581Z,7.50
2019-01-17T13:33:07.765Z,7.50
2019-01-17T13:35:36.902Z,7.50
2019-01-17T13:38:06.201Z,7.60
2019-01-17T13:40:35.347Z,7.60
2019-01-17T13:43:04.482Z,7.60
2019-01-17T13:45:33.619Z,7.50
2019-01-17T13:48:02.789Z,7.60
2019-01-17T13:50:31.899Z,7.70
2019-01-17T13:53:01.012Z,7.70
2019-01-17T13:55:30.156Z,7.70
2019-01-17T13:57:59.301Z,7.60
2019-01-17T14:00:28.521Z,7.60
2019-01-17T14:02:57.628Z,7.50
2019-01-17T14:05:26.893Z,7.50
2019-01-17T14:07:56.074Z,7.50
2019-01-17T14:10:25.637Z,7.50
2019-01-17T14:12:54.838Z,7.40
2019-01-17T14:15:26.917Z,7.40
2019-01-17T14:17:56.065Z,7.40
2019-01-17T14:20:25.186Z,7.40
2019-01-17T14:22:54.332Z,7.40
2019-01-17T14:25:23.521Z,7.40
2019-01-17T14:27:52.710Z,7.50
2019-01-17T14:30:31.381Z,7.50
2019-01-17T14:33:00.549Z,7.60
2019-01-17T14:35:29.753Z,7.60
2019-01-17T14:37:59.229Z,7.60
2019-01-17T14:40:28.501Z,7.70
2019-01-17T14:42:57.765Z,7.70
2019-01-17T14:45:26.914Z,7.70
2019-01-17T14:47:56.069Z,7.70
2019-01-17T14:50:28.313Z,7.70
2019-01-17T14:52:57.477Z,7.80
2019-01-17T14:55:26.981Z,7.70
2019-01-17T14:57:56.288Z,7.60
2019-01-17T15:00:30.808Z,7.70
2019-01-17T15:03:00.065Z,7.70
2019-01-17T15:05:29.509Z,7.70
2019-01-17T15:07:58.686Z,7.70
2019-01-17T15:10:33.657Z,7.60
2019-01-17T15:13:02.908Z,7.50
2019-01-17T15:15:32.060Z,7.50
2019-01-17T15:18:01.178Z,7.50
2019-01-17T15:20:30.324Z,7.40
2019-01-17T15:23:00.763Z,7.40
2019-01-17T15:25:29.986Z,7.40
2019-01-17T15:27:59.311Z,7.30
2019-01-17T15:30:28.936Z,7.20
2019-01-17T15:32:58.203Z,7.20
2019-01-17T15:35:27.365Z,7.30
2019-01-17T15:37:56.861Z,7.30
2019-01-17T15:40:30.835Z,7.30
2019-01-17T15:43:00.773Z,7.20
2019-01-17T15:45:29.925Z,7.10
2019-01-17T15:47:59.236Z,7.20
2019-01-17T15:50:28.370Z,7.20
2019-01-17T15:52:57.610Z,7.10
2019-01-17T15:55:26.849Z,7.10
2019-01-17T15:57:55.964Z,7.10
2019-01-17T16:00:30.505Z,7.10
2019-01-17T16:02:59.728Z,7.00
2019-01-17T16:05:28.859Z,7.10
2019-01-17T16:07:57.969Z,7.10
2019-01-17T16:10:27.217Z,7.10
2019-01-17T16:12:56.349Z,7.10
2019-01-17T16:15:27.494Z,7.10
2019-01-17T16:17:56.648Z,7.20
2019-01-17T16:20:25.773Z,7.30
2019-01-17T16:22:54.932Z,7.30
2019-01-17T16:25:24.081Z,7.30
2019-01-17T16:27:53.431Z,7.30
2019-01-17T16:30:33.145Z,7.30
2019-01-17T16:33:02.270Z,7.20
2019-01-17T16:35:31.389Z,7.10
2019-01-17T16:38:00.537Z,7.10
2019-01-17T16:40:29.722Z,7.10
2019-01-17T16:42:58.879Z,7.10
2019-01-17T16:45:28.046Z,7.10
2019-01-17T16:47:57.468Z,7.20
2019-01-17T16:50:27.805Z,7.20
2019-01-17T16:52:56.948Z,7.20
2019-01-17T16:55:26.077Z,7.10
2019-01-17T16:57:55.205Z,6.90
2019-01-17T17:00:36.509Z,6.60
2019-01-17T17:03:05.623Z,6.60
2019-01-17T17:05:34.836Z,6.60
2019-01-17T17:08:03.988Z,6.70
2019-01-17T17:10:33.117Z,6.80
2019-01-17T17:13:02.252Z,6.60
2019-01-17T17:15:31.401Z,6.60
2019-01-17T17:18:00.586Z,6.60
2019-01-17T17:20:29.893Z,6.50
2019-01-17T17:22:59.027Z,6.40
2019-01-17T17:25:28.189Z,6.40
2019-01-17T17:27:57.317Z,6.30
2019-01-17T17:30:28.075Z,6.30
2019-01-17T17:32:57.330Z,6.30
2019-01-17T17:35:26.529Z,6.30
2019-01-17T17:37:55.640Z,6.20
2019-01-17T17:40:29.905Z,6.20
2019-01-17T17:42:59.108Z,6.20
2019-01-17T17:45:28.921Z,6.10
2019-01-17T17:47:59.756Z,6.10
2019-01-17T17:50:28.955Z,6.10
2019-01-17T17:52:58.149Z,6.10
2019-01-17T17:55:27.293Z,6.10
2019-01-17T17:58:02.124Z,6.20
2019-01-17T18:00:41.720Z,6.10
2019-01-17T18:03:10.912Z,5.90
2019-01-17T18:05:40.074Z,5.90
2019-01-17T18:08:09.341Z,5.80
2019-01-17T18:10:38.564Z,5.80
2019-01-17T18:13:07.710Z,5.80
2019-01-17T18:15:37.226Z,5.70
2019-01-17T18:18:06.633Z,5.80
2019-01-17T18:20:35.882Z,5.80
2019-01-17T18:23:05.014Z,5.70
2019-01-17T18:25:34.153Z,5.50
2019-01-17T18:28:08.770Z,5.40
2019-01-17T18:30:34.328Z,5.50
2019-01-17T18:33:03.554Z,5.40
2019-01-17T18:35:32.765Z,5.50
2019-01-17T18:38:01.922Z,5.30
2019-01-17T18:40:31.105Z,5.40
2019-01-17T18:43:00.312Z,5.40
2019-01-17T18:45:29.600Z,5.40
2019-01-17T18:47:59.176Z,5.30
2019-01-17T18:50:30.101Z,5.30
2019-01-17T18:52:59.250Z,5.20
2019-01-17T18:55:28.630Z,5.30
2019-01-17T18:57:57.970Z,5.30
2019-01-17T19:00:29.488Z,5.00
2019-01-17T19:02:59.053Z,4.90
2019-01-17T19:05:28.813Z,5.00
2019-01-17T19:07:57.997Z,4.90
2019-01-17T19:10:27.356Z,4.90
2019-01-17T19:12:56.559Z,5.00
2019-01-17T19:15:31.006Z,5.10
2019-01-17T19:18:00.425Z,5.00
2019-01-17T19:20:29.629Z,5.00
2019-01-17T19:22:58.984Z,5.00
2019-01-17T19:25:28.208Z,5.00
2019-01-17T19:27:57.602Z,5.00
2019-01-17T19:30:28.785Z,5.00
2019-01-17T19:32:58.172Z,5.10
2019-01-17T19:35:27.516Z,5.10
2019-01-17T19:37:56.785Z,5.10
2019-01-17T19:40:27.384Z,5.20
2019-01-17T19:42:56.953Z,5.10
2019-01-17T19:45:26.285Z,5.00
2019-01-17T19:47:55.528Z,5.10
2019-01-17T19:50:36.357Z,5.00
2019-01-17T19:53:06.735Z,5.00
2019-01-17T19:55:36.384Z,5.10
2019-01-17T19:58:05.806Z,5.00
2019-01-17T20:00:34.984Z,5.10
2019-01-17T20:03:04.756Z,5.10
2019-01-17T20:05:34.578Z,4.90
2019-01-17T20:08:03.989Z,5.00
2019-01-17T20:10:35.283Z,5.00
2019-01-17T20:13:05.103Z,5.00
2019-01-17T20:15:34.285Z,5.10
2019-01-17T20:18:03.701Z,5.10
2019-01-17T20:20:33.881Z,5.10
2019-01-17T20:23:03.281Z,5.00
2019-01-17T20:25:32.568Z,5.00
2019-01-17T20:28:03.497Z,5.00
2019-01-17T20:30:34.280Z,5.00
2019-01-17T20:33:05.982Z,5.00
2019-01-17T20:35:35.182Z,5.00
2019-01-17T20:38:04.796Z,5.00
2019-01-17T20:40:34.220Z,5.00
2019-01-17T20:43:03.430Z,4.90
2019-01-17T20:45:32.757Z,4.80
2019-01-17T20:48:02.036Z,4.80
2019-01-17T20:50:33.169Z,4.80
2019-01-17T20:53:02.290Z,4.90
2019-01-17T20:55:31.433Z,4.80
2019-01-17T20:58:00.552Z,4.80
2019-01-17T21:00:53.836Z,4.90
2019-01-17T21:03:23.041Z,4.90
2019-01-17T21:05:52.180Z,4.80
2019-01-17T21:08:21.310Z,4.70
2019-01-17T21:10:50.455Z,4.70
2019-01-17T21:13:19.565Z,4.70
2019-01-17T21:15:48.686Z,4.70
2019-01-17T21:18:17.820Z,4.80
2019-01-17T21:20:46.974Z,4.70
2019-01-17T21:23:16.992Z,4.60
2019-01-17T21:25:46.553Z,4.50
2019-01-17T21:28:15.761Z,4.50
2019-01-17T21:30:44.885Z,4.50
2019-01-17T21:33:14.475Z,4.60
2019-01-17T21:35:43.597Z,4.50
2019-01-17T21:38:12.781Z,4.50
2019-01-17T21:40:41.958Z,4.50
2019-01-17T21:43:11.075Z,4.70
2019-01-17T21:45:40.281Z,4.60
2019-01-17T21:48:09.425Z,4.60
2019-01-17T21:50:38.540Z,4.80
2019-01-17T21:53:07.745Z,4.70
2019-01-17T21:55:37.153Z,4.70
2019-01-17T21:58:06.265Z,4.60
2019-01-17T22:00:35.545Z,4.60
2019-01-17T22:03:04.776Z,4.70
2019-01-17T22:05:33.888Z,4.60
2019-01-17T22:08:03.038Z,4.60
2019-01-17T22:10:32.168Z,4.50
2019-01-17T22:13:01.298Z,4.60
2019-01-17T22:15:30.605Z,4.50
2019-01-17T22:17:59.755Z,4.50
2019-01-17T22:20:28.878Z,4.50
2019-01-17T22:22:57.981Z,4.50
2019-01-17T22:25:27.117Z,4.40
2019-01-17T22:27:56.524Z,4.40
2019-01-17T22:30:26.973Z,4.50
2019-01-17T22:32:56.089Z,4.40
2019-01-17T22:35:25.275Z,4.40
2019-01-17T22:37:54.437Z,4.40
2019-01-17T22:40:23.553Z,4.30
2019-01-17T22:42:52.693Z,4.30
2019-01-17T22:45:24.621Z,4.20
2019-01-17T22:47:53.757Z,4.40
2019-01-17T22:50:22.885Z,4.40
2019-01-17T22:52:52.042Z,4.40
2019-01-17T22:55:21.380Z,4.30
2019-01-17T22:57:50.541Z,4.20
2019-01-17T23:01:08.009Z,4.30
2019-01-17T23:03:39.909Z,4.30
2019-01-17T23:06:09.334Z,4.30
2019-01-17T23:08:38.436Z,4.20
2019-01-17T23:11:07.562Z,3.90
2019-01-17T23:13:36.714Z,3.90
2019-01-17T23:16:06.525Z,3.90
2019-01-17T23:18:35.682Z,3.90
2019-01-17T23:21:05.353Z,4.00
2019-01-17T23:23:34.537Z,3.90
2019-01-17T23:26:04.189Z,3.90
2019-01-17T23:28:33.353Z,3.80
2019-01-17T23:31:02.561Z,3.80
2019-01-17T23:33:31.785Z,3.80
2019-01-17T23:36:00.978Z,3.80
2019-01-17T23:38:30.132Z,3.70
2019-01-17T23:40:59.290Z,3.70
2019-01-17T23:43:28.484Z,3.80
2019-01-17T23:45:57.624Z,3.70
2019-01-17T23:48:26.821Z,3.70
2019-01-17T23:50:55.993Z,3.70
2019-01-17T23:53:25.105Z,3.60
2019-01-17T23:55:54.243Z,3.50
2019-01-17T23:58:23.485Z,3.50
